Time;durP1;ratioP1;P1;durP2;ratioP2;P2;SDS_P1;SDS_P2;PMS_P1;PMS_P2;Temp;Humidity;BMP_temperature;BMP_pressure;BME280_temperature;BME280_humidity;BME280_pressure;Samples;Min_cycle;Max_cycle;Signal;HPM_P1;HPM_P2
2023/08/11 00:01:34;;;;;;;5.85;3.42;;;19.30;95.50;;;;;;4941889;29;20035;-86
2023/08/11 00:04:00;;;;;;;6.63;3.40;;;19.20;95.40;;;;;;4923973;29;20027;-85
2023/08/11 00:06:25;;;;;;;5.75;3.90;;;19.20;95.50;;;;;;4938466;28;20579;-85
2023/08/11 00:08:53;;;;;;;3.67;3.05;;;19.20;95.60;;;;;;4942185;29;20395;-85
2023/08/11 00:11:19;;;;;;;8.50;3.88;;;19.20;95.70;;;;;;4944711;29;20110;-86
2023/08/11 00:13:48;;;;;;;7.90;3.60;;;19.20;95.70;;;;;;4918105;29;20107;-85
2023/08/11 00:16:14;;;;;;;4.22;3.42;;;19.10;95.70;;;;;;4934094;28;20030;-86
2023/08/11 00:18:40;;;;;;;8.88;3.50;;;19.10;95.80;;;;;;4933917;29;20040;-85
2023/08/11 00:21:06;;;;;;;9.23;3.22;;;19.10;95.90;;;;;;4925164;29;20027;-85
2023/08/11 00:23:31;;;;;;;6.05;3.63;;;19.10;95.90;;;;;;4925625;29;20020;-86
2023/08/11 00:25:57;;;;;;;4.30;3.42;;;19.10;96.00;;;;;;4939349;29;20023;-86
2023/08/11 00:28:23;;;;;;;7.65;3.33;;;19.10;96.00;;;;;;4942619;28;20490;-86
2023/08/11 00:30:49;;;;;;;4.05;3.50;;;19.10;96.00;;;;;;4940626;29;20071;-81
2023/08/11 00:33:15;;;;;;;6.93;3.90;;;19.10;96.00;;;;;;4941012;28;20571;-85
2023/08/11 00:35:43;;;;;;;6.18;3.70;;;19.10;96.00;;;;;;4940826;29;20061;-86
2023/08/11 00:38:09;;;;;;;4.68;4.00;;;19.10;96.00;;;;;;4926222;29;20114;-86
2023/08/11 00:40:36;;;;;;;9.10;3.42;;;19.10;96.00;;;;;;4937856;29;20123;-86
2023/08/11 00:43:02;;;;;;;8.40;3.83;;;19.00;95.90;;;;;;4938770;29;20027;-86
2023/08/11 00:45:28;;;;;;;5.45;3.97;;;19.00;95.90;;;;;;4935558;28;20030;-87
2023/08/11 00:47:57;;;;;;;4.70;3.72;;;19.10;95.90;;;;;;4931735;29;20031;-86
2023/08/11 00:50:23;;;;;;;7.60;3.72;;;19.10;96.00;;;;;;4940978;28;20031;-86
2023/08/11 00:52:50;;;;;;;9.05;3.67;;;19.10;95.90;;;;;;4941777;29;20027;-86
2023/08/11 00:55:22;;;;;;;9.10;3.75;;;19.10;95.80;;;;;;4939867;29;20379;-86
2023/08/11 00:57:47;;;;;;;8.55;4.55;;;19.10;95.90;;;;;;4921038;29;20028;-86
2023/08/11 01:00:15;;;;;;;8.05;4.38;;;19.00;96.00;;;;;;4920147;29;20059;-86
2023/08/11 01:02:42;;;;;;;7.57;4.13;;;19.00;96.10;;;;;;4922088;29;20061;-79
2023/08/11 01:05:10;;;;;;;8.60;4.30;;;18.90;96.10;;;;;;4938058;28;20027;-78
2023/08/11 01:08:00;;;;;;;8.57;4.10;;;18.90;96.20;;;;;;4925915;29;20058;-79
2023/08/11 01:10:52;;;;;;;5.22;4.57;;;18.80;96.30;;;;;;4919233;29;20039;-78
2023/08/11 01:13:19;;;;;;;8.13;4.43;;;18.80;96.40;;;;;;4877877;28;20098;-79
2023/08/11 01:15:57;;;;;;;4.85;4.13;;;18.70;96.50;;;;;;4918834;29;20028;-79
2023/08/11 01:18:26;;;;;;;8.43;4.25;;;18.70;96.50;;;;;;4935487;29;20024;-79
2023/08/11 01:21:01;;;;;;;4.63;4.15;;;18.80;96.60;;;;;;4906727;29;20031;-79
2023/08/11 01:23:34;;;;;;;5.55;4.93;;;18.80;96.50;;;;;;4934680;29;20545;-79
2023/08/11 01:26:01;;;;;;;9.90;4.05;;;18.70;96.40;;;;;;4917497;29;20119;-80
2023/08/11 01:28:27;;;;;;;6.05;4.63;;;18.70;96.50;;;;;;4934086;29;20033;-80
2023/08/11 01:30:52;;;;;;;5.13;4.60;;;18.70;96.50;;;;;;4923453;29;20115;-78
2023/08/11 01:33:18;;;;;;;13.05;4.82;;;18.70;96.50;;;;;;4937578;28;20094;-79
2023/08/11 01:35:44;;;;;;;7.70;4.25;;;18.70;96.60;;;;;;4921347;29;20028;-79
2023/08/11 01:38:09;;;;;;;8.85;4.30;;;18.70;96.60;;;;;;4933648;29;20015;-79
2023/08/11 01:40:35;;;;;;;9.07;4.43;;;18.70;96.60;;;;;;4908073;29;20062;-79
2023/08/11 01:43:05;;;;;;;4.65;4.15;;;18.70;96.60;;;;;;4934511;28;20027;-79
2023/08/11 01:45:33;;;;;;;7.10;4.75;;;18.70;96.60;;;;;;4932145;29;20023;-85
2023/08/11 01:48:00;;;;;;;7.38;4.57;;;18.60;96.60;;;;;;4934193;29;20606;-79
2023/08/11 01:50:27;;;;;;;8.23;4.47;;;18.60;96.70;;;;;;4934982;28;20060;-79
2023/08/11 01:52:54;;;;;;;7.35;4.55;;;18.70;96.70;;;;;;4936363;28;20078;-86
2023/08/11 01:55:20;;;;;;;6.05;4.65;;;18.60;96.70;;;;;;4920263;29;20067;-86
2023/08/11 01:57:46;;;;;;;8.02;4.43;;;18.60;96.70;;;;;;4933724;29;20070;-79
2023/08/11 02:00:13;;;;;;;9.13;4.63;;;18.60;97.10;;;;;;4919630;29;20035;-79
2023/08/11 02:02:43;;;;;;;7.25;4.75;;;18.60;96.80;;;;;;4933705;29;20027;-79
2023/08/11 02:05:11;;;;;;;11.95;4.82;;;18.60;96.80;;;;;;4936164;29;20063;-79
2023/08/11 02:07:38;;;;;;;5.35;4.38;;;18.50;96.90;;;;;;4913416;29;20052;-87
2023/08/11 02:10:03;;;;;;;7.82;5.32;;;18.50;97.00;;;;;;4931881;29;20543;-87
2023/08/11 02:12:30;;;;;;;9.63;5.15;;;18.40;97.10;;;;;;4932380;29;20027;-86
2023/08/11 02:14:55;;;;;;;7.35;5.55;;;18.40;97.20;;;;;;4936033;29;20042;-85
2023/08/11 02:17:24;;;;;;;8.48;5.13;;;18.30;97.30;;;;;;4938145;29;20032;-86
2023/08/11 02:19:50;;;;;;;14.18;5.57;;;18.30;97.50;;;;;;4920290;29;20036;-79
2023/08/11 02:22:16;;;;;;;8.02;4.60;;;18.20;97.50;;;;;;4934815;29;20078;-79
2023/08/11 02:24:42;;;;;;;10.02;5.03;;;18.20;97.50;;;;;;4906814;29;20024;-79
2023/08/11 02:27:09;;;;;;;10.55;5.43;;;18.20;97.60;;;;;;4936392;29;20565;-80
2023/08/11 02:29:34;;;;;;;10.57;5.65;;;18.20;97.60;;;;;;4934725;29;20020;-79
2023/08/11 02:32:03;;;;;;;7.63;5.30;;;18.10;97.70;;;;;;4929297;28;20035;-79
2023/08/11 02:34:30;;;;;;;6.60;5.50;;;18.10;97.80;;;;;;4935766;29;20164;-79
2023/08/11 02:36:56;;;;;;;7.35;5.47;;;18.00;97.90;;;;;;4919306;29;20046;-79
2023/08/11 02:39:22;;;;;;;9.15;5.20;;;18.00;98.00;;;;;;4929663;29;20480;-81
2023/08/11 02:41:47;;;;;;;10.25;5.60;;;18.00;98.00;;;;;;4934624;29;20027;-78
2023/08/11 02:44:15;;;;;;;7.45;5.68;;;18.10;98.00;;;;;;4934928;28;20859;-79
2023/08/11 02:46:41;;;;;;;9.18;5.97;;;18.10;97.80;;;;;;4932380;29;20028;-78
2023/08/11 02:49:09;;;;;;;11.40;4.97;;;18.10;97.90;;;;;;4919106;29;20110;-87
2023/08/11 02:51:37;;;;;;;8.65;5.07;;;18.10;97.80;;;;;;4939682;29;20742;-79
2023/08/11 02:54:05;;;;;;;7.38;5.00;;;18.10;97.80;;;;;;4938727;28;20663;-86
2023/08/11 02:56:31;;;;;;;11.07;5.57;;;18.10;97.70;;;;;;4924140;29;20023;-86
2023/08/11 02:58:58;;;;;;;8.07;5.05;;;18.10;97.70;;;;;;4940962;29;20031;-86
2023/08/11 03:01:25;;;;;;;8.02;5.57;;;18.10;97.70;;;;;;4937971;29;20088;-79
2023/08/11 03:03:50;;;;;;;8.93;5.72;;;18.10;97.70;;;;;;4920893;29;20446;-79
2023/08/11 03:06:16;;;;;;;11.55;6.20;;;18.10;97.70;;;;;;4941379;29;20020;-87
2023/08/11 03:08:42;;;;;;;8.20;5.45;;;18.10;97.70;;;;;;4932642;29;20054;-86
2023/08/11 03:11:10;;;;;;;7.63;5.20;;;18.10;97.70;;;;;;4941903;29;20608;-86
2023/08/11 03:13:36;;;;;;;12.98;5.38;;;18.10;97.80;;;;;;4935607;29;20503;-86
2023/08/11 03:16:02;;;;;;;10.65;6.03;;;18.00;97.80;;;;;;4940700;29;20043;-85
2023/08/11 03:18:27;;;;;;;9.15;6.05;;;18.00;97.80;;;;;;4931396;29;20035;-86
2023/08/11 03:20:53;;;;;;;7.93;6.15;;;18.00;97.90;;;;;;4942832;29;20024;-87
2023/08/11 03:23:19;;;;;;;13.30;5.97;;;18.00;97.90;;;;;;4942276;29;20039;-86
2023/08/11 03:25:45;;;;;;;7.70;5.70;;;18.00;98.00;;;;;;4922682;29;20637;-79
2023/08/11 03:28:11;;;;;;;10.25;5.57;;;17.90;98.00;;;;;;4938627;29;20058;-77
2023/08/11 03:30:36;;;;;;;9.48;5.72;;;17.90;98.00;;;;;;4929697;29;20062;-86
2023/08/11 03:33:04;;;;;;;9.93;5.90;;;17.90;98.10;;;;;;4923194;29;20046;-86
2023/08/11 03:35:33;;;;;;;8.32;5.43;;;17.90;98.10;;;;;;4914551;29;20108;-86
2023/08/11 03:38:01;;;;;;;9.30;5.78;;;17.90;98.10;;;;;;4937711;29;20036;-87
2023/08/11 03:40:28;;;;;;;9.68;6.18;;;17.90;98.20;;;;;;4939280;29;20031;-86
2023/08/11 03:42:56;;;;;;;9.80;5.90;;;17.90;98.20;;;;;;4936456;29;20027;-78
2023/08/11 03:45:22;;;;;;;8.75;6.32;;;17.80;98.20;;;;;;4939553;29;20032;-78
2023/08/11 03:47:48;;;;;;;11.65;5.82;;;17.80;98.30;;;;;;4938464;29;20070;-86
2023/08/11 03:50:13;;;;;;;8.52;5.82;;;17.80;98.30;;;;;;4939734;28;20365;-78
2023/08/11 03:52:41;;;;;;;10.95;5.60;;;17.70;98.40;;;;;;4937188;29;20019;-84
2023/08/11 03:55:09;;;;;;;9.02;5.90;;;17.70;98.40;;;;;;4923358;29;20503;-87
2023/08/11 03:57:36;;;;;;;10.00;6.20;;;17.70;98.40;;;;;;4930197;29;20039;-82
2023/08/11 04:00:09;;;;;;;10.05;6.13;;;17.70;98.50;;;;;;4939871;28;20019;-86
2023/08/11 04:02:37;;;;;;;10.15;6.60;;;17.70;98.50;;;;;;4939009;29;20024;-86
2023/08/11 04:05:05;;;;;;;9.13;5.82;;;17.70;98.60;;;;;;4921399;29;20476;-86
2023/08/11 04:07:31;;;;;;;13.82;6.13;;;17.60;98.60;;;;;;4939199;28;20035;-86
2023/08/11 04:09:59;;;;;;;6.15;5.40;;;17.60;98.60;;;;;;4943221;28;20020;-86
2023/08/11 04:12:25;;;;;;;11.85;5.60;;;17.60;98.70;;;;;;4938927;29;20039;-86
2023/08/11 04:14:50;;;;;;;8.98;5.50;;;17.60;98.70;;;;;;4923318;29;20487;-85
2023/08/11 04:17:16;;;;;;;11.57;5.78;;;17.60;98.60;;;;;;4945889;28;20034;-86
2023/08/11 04:19:43;;;;;;;24.55;5.25;;;17.60;98.60;;;;;;4920862;29;20117;-86
2023/08/11 04:22:09;;;;;;;14.00;6.13;;;17.60;98.60;;;;;;4939570;29;20027;-78
2023/08/11 04:24:37;;;;;;;7.53;5.40;;;17.70;98.60;;;;;;4936409;29;20035;-79
2023/08/11 04:27:05;;;;;;;11.75;5.90;;;17.70;98.60;;;;;;4936325;29;20045;-80
2023/08/11 04:29:30;;;;;;;8.43;5.53;;;17.60;98.60;;;;;;4924099;29;20027;-79
2023/08/11 04:31:56;;;;;;;8.80;5.93;;;17.60;98.60;;;;;;4938269;29;20119;-80
2023/08/11 04:34:21;;;;;;;9.15;5.90;;;17.60;98.60;;;;;;4938761;29;20047;-79
2023/08/11 04:36:47;;;;;;;10.52;6.15;;;17.70;98.60;;;;;;4940648;28;20027;-78
2023/08/11 04:39:12;;;;;;;6.57;5.20;;;17.60;98.60;;;;;;4938018;29;20032;-86
2023/08/11 04:41:38;;;;;;;12.93;6.13;;;17.60;99.00;;;;;;4932737;29;20086;-80
2023/08/11 04:44:04;;;;;;;7.15;5.32;;;17.70;98.70;;;;;;4933969;29;20556;-79
2023/08/11 04:46:31;;;;;;;10.20;5.68;;;17.70;98.70;;;;;;4934351;29;20377;-79
2023/08/11 04:48:57;;;;;;;10.20;5.80;;;17.60;98.70;;;;;;4939136;29;20304;-79
2023/08/11 04:51:22;;;;;;;7.70;5.10;;;17.60;98.70;;;;;;4930700;28;20481;-78
2023/08/11 04:53:49;;;;;;;9.02;6.05;;;17.60;98.70;;;;;;4920541;29;20039;-78
2023/08/11 04:56:15;;;;;;;10.52;5.55;;;17.60;98.80;;;;;;4933042;29;20396;-79
2023/08/11 04:58:41;;;;;;;8.20;5.80;;;17.60;98.90;;;;;;4923252;29;20069;-79
2023/08/11 05:01:07;;;;;;;9.63;5.18;;;17.50;98.90;;;;;;4935002;28;20058;-86
2023/08/11 05:03:35;;;;;;;9.75;5.93;;;17.60;98.90;;;;;;4923166;29;20077;-86
2023/08/11 05:06:03;;;;;;;8.13;5.78;;;17.60;98.90;;;;;;4935703;28;20476;-79
2023/08/11 05:08:29;;;;;;;8.70;5.72;;;17.60;98.90;;;;;;4938061;28;20091;-79
2023/08/11 05:10:56;;;;;;;5.90;5.15;;;17.60;98.90;;;;;;4919173;29;20115;-79
2023/08/11 05:13:25;;;;;;;12.20;5.38;;;17.60;98.90;;;;;;4914066;29;20396;-79
2023/08/11 05:15:51;;;;;;;6.30;4.93;;;17.60;98.80;;;;;;4919832;29;20114;-78
2023/08/11 05:18:17;;;;;;;10.05;5.35;;;17.70;98.90;;;;;;4933465;29;20119;-79
2023/08/11 05:20:43;;;;;;;8.55;5.18;;;17.70;99.20;;;;;;4934918;29;20484;-78
2023/08/11 05:23:11;;;;;;;7.43;5.55;;;17.70;98.80;;;;;;4936081;28;20015;-79
2023/08/11 05:25:37;;;;;;;7.82;5.63;;;17.80;98.80;;;;;;4910682;29;20046;-78
2023/08/11 05:28:03;;;;;;;9.57;5.03;;;17.80;98.80;;;;;;4935232;29;20032;-86
2023/08/11 05:30:31;;;;;;;11.65;5.78;;;17.90;98.80;;;;;;4935241;28;20032;-86
2023/08/11 05:32:57;;;;;;;7.45;4.90;;;18.00;98.70;;;;;;4933041;28;20063;-86
2023/08/11 05:35:22;;;;;;;7.43;5.20;;;18.00;98.60;;;;;;4930067;29;20028;-87
2023/08/11 05:37:48;;;;;;;11.18;5.35;;;18.10;98.60;;;;;;4908948;29;20404;-87
2023/08/11 05:40:14;;;;;;;18.48;5.63;;;18.10;98.50;;;;;;4922273;29;20507;-86
2023/08/11 05:42:40;;;;;;;7.93;4.82;;;18.20;98.50;;;;;;4918702;29;20084;-85
2023/08/11 05:45:07;;;;;;;17.83;5.25;;;18.20;98.30;;;;;;4926954;29;20655;-87
2023/08/11 05:47:33;;;;;;;5.45;4.53;;;18.20;98.40;;;;;;4941156;29;20038;-84
2023/08/11 05:49:58;;;;;;;5.60;5.03;;;18.30;98.30;;;;;;4922040;29;20106;-86
2023/08/11 05:52:24;;;;;;;11.85;5.07;;;18.40;98.30;;;;;;4938059;29;20027;-85
2023/08/11 05:54:52;;;;;;;9.38;4.78;;;18.50;98.10;;;;;;4930093;29;20028;-86
2023/08/11 05:57:18;;;;;;;7.40;4.47;;;18.50;98.00;;;;;;4938811;29;20035;-89
2023/08/11 05:59:44;;;;;;;333.63;158.85;;;18.60;97.90;;;;;;4943089;28;20038;-89
2023/08/11 06:02:09;;;;;;;22.30;8.85;;;18.70;98.00;;;;;;4938137;29;20043;-89
2023/08/11 06:04:36;;;;;;;10.35;4.90;;;18.70;97.60;;;;;;4936032;29;20038;-87
2023/08/11 06:07:01;;;;;;;16.17;7.45;;;18.90;97.60;;;;;;4919462;29;20130;-88
2023/08/11 06:09:27;;;;;;;6.13;3.75;;;19.00;97.40;;;;;;4934903;29;20175;-87
2023/08/11 06:11:52;;;;;;;6.90;4.00;;;19.20;97.10;;;;;;4917236;29;20039;-79
2023/08/11 06:14:18;;;;;;;5.35;3.72;;;19.30;97.20;;;;;;4941646;29;20038;-82
2023/08/11 06:16:44;;;;;;;5.88;3.92;;;19.30;97.00;;;;;;4916992;29;20031;-78
2023/08/11 06:19:12;;;;;;;5.03;4.13;;;19.40;96.70;;;;;;4924549;29;20086;-89
2023/08/11 06:21:38;;;;;;;7.43;3.75;;;19.50;96.80;;;;;;4935496;29;20036;-79
2023/08/11 06:24:04;;;;;;;6.03;4.20;;;19.60;96.50;;;;;;4913740;29;20027;-79
2023/08/11 06:26:30;;;;;;;5.25;3.70;;;19.50;96.20;;;;;;4929352;29;20039;-78
2023/08/11 06:28:55;;;;;;;4.78;3.50;;;19.50;95.90;;;;;;4928532;29;20040;-79
2023/08/11 06:31:21;;;;;;;7.07;3.83;;;19.50;95.80;;;;;;4933549;29;20057;-87
2023/08/11 06:33:47;;;;;;;7.38;3.78;;;19.50;95.40;;;;;;4913544;29;20071;-79
2023/08/11 06:36:13;;;;;;;12.43;3.83;;;19.60;95.50;;;;;;4929975;29;20059;-77
2023/08/11 06:38:39;;;;;;;7.70;3.63;;;19.60;95.50;;;;;;4925803;29;20813;-77
2023/08/11 06:41:07;;;;;;;5.70;3.83;;;19.70;95.50;;;;;;4916781;29;20093;-77
2023/08/11 06:43:32;;;;;;;10.80;4.07;;;19.80;95.40;;;;;;4917860;29;20031;-78
2023/08/11 06:45:58;;;;;;;136.23;54.30;;;19.80;95.30;;;;;;4925418;29;20060;-92
2023/08/11 06:48:23;;;;;;;12.10;5.95;;;19.80;95.50;;;;;;4944830;29;20063;-77
2023/08/11 06:50:49;;;;;;;8.57;3.58;;;20.00;95.30;;;;;;4919673;29;20084;-77
2023/08/11 06:53:15;;;;;;;11.05;4.00;;;20.10;95.30;;;;;;4919107;29;20080;-77
2023/08/11 06:55:43;;;;;;;9.73;4.15;;;20.10;95.10;;;;;;4941569;29;20031;-77
2023/08/11 06:58:09;;;;;;;7.13;3.70;;;20.20;94.30;;;;;;4938516;29;20070;-77
2023/08/11 07:00:36;;;;;;;11.10;4.07;;;20.20;94.20;;;;;;4921696;29;20473;-77
2023/08/11 07:03:03;;;;;;;8.45;4.35;;;20.30;94.00;;;;;;4933554;28;20530;-77
2023/08/11 07:05:31;;;;;;;10.85;4.43;;;20.40;93.90;;;;;;4939015;29;20015;-77
2023/08/11 07:07:56;;;;;;;9.43;4.47;;;20.60;94.00;;;;;;4939830;29;20027;-87
2023/08/11 07:10:22;;;;;;;17.15;5.05;;;20.60;93.70;;;;;;4927207;29;20024;-86
2023/08/11 07:12:50;;;;;;;11.73;4.47;;;20.70;93.70;;;;;;4928610;29;20028;-86
2023/08/11 07:15:15;;;;;;;14.52;4.80;;;20.80;93.70;;;;;;4941241;29;20464;-87
2023/08/11 07:17:41;;;;;;;11.48;4.85;;;20.90;93.40;;;;;;4940420;29;20067;-86
2023/08/11 07:20:07;;;;;;;11.30;4.90;;;20.90;93.10;;;;;;4935631;29;20023;-85
2023/08/11 07:22:32;;;;;;;10.88;4.70;;;20.90;93.20;;;;;;4923769;29;20035;-86
2023/08/11 07:24:58;;;;;;;9.40;4.38;;;20.80;92.30;;;;;;4939122;29;20090;-77
2023/08/11 07:27:24;;;;;;;12.80;4.00;;;20.80;92.80;;;;;;4921412;29;20066;-77
2023/08/11 07:29:51;;;;;;;12.02;5.00;;;20.80;92.60;;;;;;4941673;29;20028;-77
2023/08/11 07:32:17;;;;;;;13.20;4.75;;;20.80;92.50;;;;;;4937673;29;20023;-78
2023/08/11 07:34:43;;;;;;;15.68;4.78;;;20.80;92.40;;;;;;4937164;29;20480;-86
2023/08/11 07:37:08;;;;;;;13.20;5.57;;;21.00;92.30;;;;;;4943226;29;20523;-81
2023/08/11 07:39:39;;;;;;;14.90;4.93;;;21.20;92.20;;;;;;4940158;29;20388;-81
2023/08/11 07:42:05;;;;;;;8.35;4.68;;;21.30;92.30;;;;;;4924855;29;20020;-80
2023/08/11 07:44:31;;;;;;;9.60;4.47;;;21.30;92.30;;;;;;4924704;29;20035;-81
2023/08/11 07:46:57;;;;;;;12.65;5.00;;;21.50;91.90;;;;;;4940000;29;20487;-83
2023/08/11 07:49:24;;;;;;;10.93;5.03;;;21.50;91.80;;;;;;4920674;29;20056;-85
2023/08/11 07:51:50;;;;;;;11.27;4.63;;;21.70;91.80;;;;;;4909369;29;20023;-81
2023/08/11 07:54:16;;;;;;;10.43;4.35;;;21.80;91.60;;;;;;4938455;29;20543;-82
2023/08/11 07:56:43;;;;;;;6.88;4.22;;;21.90;91.40;;;;;;4924220;29;20083;-87
2023/08/11 07:59:09;;;;;;;10.48;4.80;;;21.80;91.30;;;;;;4911092;29;20067;-85
2023/08/11 08:01:36;;;;;;;15.55;7.35;;;21.90;91.30;;;;;;4917984;28;20027;-89
2023/08/11 08:04:03;;;;;;;38.60;16.08;;;21.80;91.80;;;;;;4926462;29;20033;-84
2023/08/11 08:06:29;;;;;;;12.32;4.15;;;21.90;91.10;;;;;;4916224;29;20059;-94
2023/08/11 08:08:57;;;;;;;10.38;4.53;;;21.90;91.80;;;;;;4921468;29;20016;-87
2023/08/11 08:11:23;;;;;;;9.52;4.13;;;22.00;91.40;;;;;;4923538;29;20023;-94
2023/08/11 08:13:49;;;;;;;8.98;4.70;;;22.20;91.40;;;;;;4913231;29;20115;-88
2023/08/11 08:16:15;;;;;;;6.68;4.20;;;22.40;91.20;;;;;;4912359;29;20086;-86
2023/08/11 08:21:25;;;;;;;13.95;5.38;;;22.60;90.50;;;;;;4949672;29;20051;-92
2023/08/11 08:23:50;;;;;;;9.82;4.93;;;22.70;90.70;;;;;;4950762;28;20046;-91
2023/08/11 08:26:16;;;;;;;10.57;4.00;;;22.80;90.60;;;;;;4952509;28;20130;-81
2023/08/11 08:28:42;;;;;;;8.90;4.63;;;23.10;90.60;;;;;;4947115;28;20027;-82
2023/08/11 08:31:07;;;;;;;7.20;4.40;;;23.00;89.80;;;;;;4945684;28;20937;-85
2023/08/11 08:33:33;;;;;;;7.32;4.63;;;23.00;90.40;;;;;;4951898;29;20039;-96
2023/08/11 08:35:59;;;;;;;9.32;4.25;;;23.20;90.40;;;;;;4951807;28;20110;-93
2023/08/11 08:38:24;;;;;;;6.90;4.13;;;23.50;90.00;;;;;;4949094;29;20030;-91
2023/08/11 08:40:50;;;;;;;7.78;4.40;;;23.50;88.30;;;;;;4944909;28;20038;-83
2023/08/11 08:43:18;;;;;;;11.18;4.68;;;23.70;88.70;;;;;;4948034;28;20645;-83
2023/08/11 08:45:50;;;;;;;5.78;3.72;;;23.80;88.50;;;;;;4946116;29;20034;-83
2023/08/11 08:48:24;;;;;;;9.75;4.50;;;23.90;89.00;;;;;;4946043;28;20038;-82
2023/08/11 08:50:50;;;;;;;7.18;4.75;;;24.10;89.10;;;;;;4943618;29;20049;-82
2023/08/11 08:53:15;;;;;;;11.57;3.65;;;24.10;87.10;;;;;;4946576;28;20055;-83
2023/08/11 08:55:41;;;;;;;8.63;3.67;;;24.30;87.50;;;;;;4939359;29;20110;-82
2023/08/11 08:58:09;;;;;;;5.32;4.10;;;24.50;86.60;;;;;;4937086;29;20098;-83
2023/08/11 09:00:35;;;;;;;9.85;3.75;;;24.80;85.70;;;;;;4946319;28;20723;-83
2023/08/11 09:03:03;;;;;;;7.07;3.78;;;24.90;85.40;;;;;;4945587;29;20094;-82
2023/08/11 09:05:29;;;;;;;9.13;3.90;;;25.10;85.40;;;;;;4947378;29;20546;-84
2023/08/11 09:07:54;;;;;;;6.60;4.20;;;25.30;84.30;;;;;;4942475;28;20057;-84
2023/08/11 09:10:21;;;;;;;8.13;4.03;;;25.20;84.00;;;;;;4946138;29;20479;-84
2023/08/11 09:15:28;;;;;;;6.22;3.78;;;25.80;82.60;;;;;;5111115;23;20763;-89
2023/08/11 09:17:55;;;;;;;4.93;4.10;;;26.10;81.80;;;;;;4945616;28;20074;-94
2023/08/11 09:20:26;;;;;;;9.93;3.47;;;26.30;80.40;;;;;;4932290;28;20046;-87
2023/08/11 09:22:55;;;;;;;8.13;4.20;;;26.70;79.60;;;;;;4933225;28;20369;-92
2023/08/11 09:25:23;;;;;;;8.35;3.42;;;27.00;79.10;;;;;;4930609;28;20066;-93
2023/08/11 09:27:54;;;;;;;4.55;3.75;;;27.40;76.60;;;;;;4930066;29;20031;-91
2023/08/11 09:30:20;;;;;;;89.28;39.47;;;27.60;76.90;;;;;;4939329;28;20032;-89
2023/08/11 09:32:49;;;;;;;81.03;46.15;;;27.90;77.40;;;;;;4932504;28;20030;-86
2023/08/11 09:35:21;;;;;;;6.45;3.88;;;27.90;74.70;;;;;;4949469;28;20032;-87
2023/08/11 09:37:47;;;;;;;12.73;3.85;;;28.00;78.80;;;;;;4933394;28;20039;-90
2023/08/11 09:40:15;;;;;;;11.48;4.18;;;28.20;73.60;;;;;;4928204;28;20480;-87
2023/08/11 09:42:43;;;;;;;5.70;4.75;;;28.70;72.80;;;;;;4945034;28;20027;-87
2023/08/11 09:45:09;;;;;;;4.78;4.03;;;28.60;73.20;;;;;;4951786;28;20030;-90
2023/08/11 09:47:35;;;;;;;5.65;4.40;;;29.10;72.20;;;;;;4931226;28;20118;-90
2023/08/11 09:50:03;;;;;;;13.55;7.60;;;29.40;71.40;;;;;;4935738;28;20051;-91
2023/08/11 09:52:33;;;;;;;3.92;3.42;;;29.70;70.30;;;;;;4930539;28;20041;-82
2023/08/11 09:54:59;;;;;;;5.95;4.20;;;30.00;68.10;;;;;;4943009;28;20068;-82
2023/08/11 09:57:29;;;;;;;6.70;3.33;;;30.40;67.40;;;;;;4920240;28;20050;-82
2023/08/11 09:59:57;;;;;;;4.45;3.58;;;30.20;67.20;;;;;;4928850;28;20519;-82
2023/08/11 10:02:30;;;;;;;3.95;3.55;;;30.30;66.80;;;;;;4947201;28;20153;-82
2023/08/11 10:05:03;;;;;;;5.07;3.72;;;30.60;65.60;;;;;;4945431;28;20143;-83
2023/08/11 10:07:39;;;;;;;3.38;3.08;;;30.80;64.90;;;;;;4946383;28;20098;-95
2023/08/11 10:10:12;;;;;;;5.22;3.63;;;30.30;64.40;;;;;;4935921;28;20038;-94
2023/08/11 10:12:42;;;;;;;4.57;3.10;;;30.30;64.10;;;;;;4952036;28;20030;-91
2023/08/11 10:15:13;;;;;;;7.43;3.25;;;30.80;64.10;;;;;;4932460;28;20038;-94
2023/08/11 10:17:42;;;;;;;354.75;181.00;;;31.10;63.20;;;;;;4935294;28;20749;-90
2023/08/11 10:20:09;;;;;;;5.13;4.20;;;31.50;62.20;;;;;;4928810;28;20035;-89
2023/08/11 10:22:35;;;;;;;7.90;3.90;;;31.60;62.70;;;;;;4924192;29;20032;-89
2023/08/11 10:25:06;;;;;;;4.95;3.45;;;31.10;61.60;;;;;;4936062;28;20019;-90
2023/08/11 10:27:33;;;;;;;6.63;3.95;;;31.00;63.20;;;;;;4947427;28;20038;-88
2023/08/11 10:30:01;;;;;;;3.75;3.42;;;30.90;62.60;;;;;;4960321;28;20032;-84
2023/08/11 10:32:33;;;;;;;6.47;3.78;;;31.30;63.10;;;;;;4947282;28;20015;-84
2023/08/11 10:34:59;;;;;;;3.80;3.47;;;31.30;62.50;;;;;;4957010;28;20012;-93
2023/08/11 10:37:35;;;;;;;3.85;3.45;;;32.00;61.10;;;;;;4940071;28;20111;-91
2023/08/11 10:40:06;;;;;;;4.13;3.72;;;32.30;59.20;;;;;;4935002;28;20399;-93
2023/08/11 10:42:35;;;;;;;3.92;3.63;;;32.20;60.10;;;;;;4928252;28;20027;-82
2023/08/11 10:45:12;;;;;;;6.57;3.03;;;31.80;60.10;;;;;;4944479;28;20015;-82
2023/08/11 10:47:43;;;;;;;4.22;3.20;;;32.10;58.60;;;;;;4944736;28;20086;-82
2023/08/11 10:50:09;;;;;;;5.30;3.35;;;31.80;59.40;;;;;;4919353;29;20483;-83
2023/08/11 10:52:36;;;;;;;23.15;13.77;;;31.90;58.40;;;;;;4926604;29;20032;-84
2023/08/11 10:55:03;;;;;;;4.03;3.05;;;31.80;59.20;;;;;;4923917;29;20120;-84
2023/08/11 10:57:31;;;;;;;4.57;3.80;;;31.20;60.00;;;;;;4936775;28;20131;-83
2023/08/11 10:59:57;;;;;;;4.32;3.55;;;31.20;61.30;;;;;;4919379;28;20035;-83
2023/08/11 11:02:23;;;;;;;4.97;3.45;;;31.40;60.60;;;;;;4939575;28;20031;-85
2023/08/11 11:04:51;;;;;;;5.13;3.40;;;31.30;59.00;;;;;;4930717;28;20039;-87
2023/08/11 11:07:20;;;;;;;6.22;3.83;;;31.50;60.20;;;;;;4949637;28;20479;-91
2023/08/11 11:09:46;;;;;;;3.90;3.47;;;31.70;59.20;;;;;;4922772;28;20031;-84
2023/08/11 11:12:14;;;;;;;3.38;3.13;;;32.10;58.80;;;;;;4928117;28;20070;-85
2023/08/11 11:14:40;;;;;;;6.82;3.40;;;32.30;56.80;;;;;;4926995;28;20094;-86
2023/08/11 11:17:09;;;;;;;4.85;3.42;;;32.00;58.00;;;;;;4924304;28;20039;-84
2023/08/11 11:19:35;;;;;;;5.25;4.05;;;32.20;59.00;;;;;;4945602;28;20126;-84
2023/08/11 11:22:01;;;;;;;4.75;3.58;;;31.80;58.10;;;;;;4944798;28;20142;-87
2023/08/11 11:24:27;;;;;;;4.53;3.58;;;31.80;57.00;;;;;;4945836;28;20023;-88
2023/08/11 11:26:56;;;;;;;5.97;3.70;;;31.80;57.20;;;;;;4925346;28;20046;-89
2023/08/11 11:29:23;;;;;;;5.15;3.55;;;31.60;55.60;;;;;;4943753;28;20061;-91
2023/08/11 11:31:49;;;;;;;4.72;3.45;;;31.60;56.40;;;;;;4943572;28;20111;-91
2023/08/11 11:34:19;;;;;;;5.25;3.80;;;31.90;56.50;;;;;;4943331;28;20039;-85
2023/08/11 11:36:47;;;;;;;4.90;4.00;;;32.10;55.40;;;;;;4932783;28;20043;-86
2023/08/11 11:39:16;;;;;;;5.78;3.92;;;32.40;55.70;;;;;;4933805;28;20070;-90
2023/08/11 11:41:44;;;;;;;4.78;3.78;;;32.20;56.40;;;;;;4932723;28;20441;-86
2023/08/11 11:44:11;;;;;;;5.28;3.15;;;32.30;53.60;;;;;;4948312;28;20032;-86
2023/08/11 11:46:38;;;;;;;7.15;3.63;;;32.20;52.90;;;;;;4934046;28;20035;-85
2023/08/11 11:49:06;;;;;;;3.72;3.50;;;32.40;56.30;;;;;;4947768;28;20024;-87
2023/08/11 11:51:34;;;;;;;4.13;3.80;;;32.50;54.10;;;;;;4944851;28;20582;-86
2023/08/11 11:54:00;;;;;;;10.05;4.10;;;32.40;52.00;;;;;;4931393;28;20028;-86
2023/08/11 11:56:30;;;;;;;5.25;3.78;;;32.00;54.60;;;;;;4945036;28;20392;-85
2023/08/11 11:58:56;;;;;;;7.63;3.75;;;32.20;55.00;;;;;;4926083;28;20527;-84
2023/08/11 12:01:27;;;;;;;4.22;3.83;;;32.20;54.10;;;;;;4942614;28;20028;-86
2023/08/11 12:03:59;;;;;;;5.95;3.88;;;32.20;54.80;;;;;;4932729;28;20094;-90
2023/08/11 12:06:27;;;;;;;4.28;3.67;;;32.30;54.00;;;;;;4945217;28;20086;-84
2023/08/11 12:09:08;;;;;;;6.30;3.30;;;32.50;53.70;;;;;;4943699;28;20078;-87
2023/08/11 12:11:35;;;;;;;8.63;3.60;;;32.90;52.80;;;;;;4942894;28;20030;-84
2023/08/11 12:14:01;;;;;;;5.10;3.15;;;32.40;54.50;;;;;;4946906;28;20507;-85
2023/08/11 12:16:27;;;;;;;4.00;3.40;;;32.20;53.50;;;;;;4944230;28;20074;-88
2023/08/11 12:19:14;;;;;;;4.63;3.15;;;32.00;54.30;;;;;;4930358;28;20042;-86
2023/08/11 12:22:11;;;;;;;4.22;2.97;;;32.30;54.70;;;;;;4932717;28;20031;-87
2023/08/11 12:25:13;;;;;;;;;;;;;;;;;;;;;
2023/08/11 12:28:49;;;;;;;4.28;3.35;;;32.10;54.50;;;;;;4961869;28;20062;-87
2023/08/11 12:42:08;;;;;;;3.45;3.22;;;32.40;52.90;;;;;;4848113;29;20054;-85
2023/08/11 12:44:34;;;;;;;5.65;3.20;;;32.30;53.80;;;;;;4855308;29;20038;-86
2023/08/11 12:47:10;;;;;;;3.65;3.35;;;32.40;55.20;;;;;;4836808;29;20022;-90
2023/08/11 12:50:32;;;;;;;;;;;;;;;;;;;;;
2023/08/11 12:53:42;;;;;;;3.53;3.22;;;31.70;54.40;;;;;;4856164;29;20033;-89
2023/08/11 12:56:15;;;;;;;3.70;3.33;;;31.70;55.90;;;;;;4794496;29;20038;-82
2023/08/11 12:58:40;;;;;;;3.75;3.35;;;32.20;56.70;;;;;;4848562;29;20042;-82
2023/08/11 13:03:41;;;;;;;5.45;3.28;;;31.80;56.00;;;;;;4933168;23;20866;-84
2023/08/11 13:06:09;;;;;;;7.30;2.78;;;31.70;56.60;;;;;;4938161;28;20016;-84
2023/08/11 13:08:35;;;;;;;5.72;3.80;;;32.00;56.10;;;;;;4918807;29;20039;-84